createdAt,value
2022-10-15T00:00:19.839Z,0.80
2022-10-15T00:02:46.578Z,0.65
2022-10-15T00:05:13.160Z,0.88
2022-10-15T00:07:41.208Z,0.95
2022-10-15T00:10:08.012Z,0.70
2022-10-15T00:12:34.619Z,0.68
2022-10-15T00:15:01.110Z,0.57
2022-10-15T00:17:27.742Z,0.70
2022-10-15T00:19:54.361Z,0.77
2022-10-15T00:22:21.261Z,0.80
2022-10-15T00:24:47.989Z,0.73
2022-10-15T00:27:14.569Z,0.60
2022-10-15T00:29:41.243Z,0.73
2022-10-15T00:32:07.874Z,0.60
2022-10-15T00:34:34.547Z,0.88
2022-10-15T00:37:01.132Z,0.60
2022-10-15T00:39:27.671Z,0.50
2022-10-15T00:41:54.357Z,0.80
2022-10-15T00:44:21.326Z,0.80
2022-10-15T00:47:07.061Z,0.70
2022-10-15T00:49:37.367Z,0.40
2022-10-15T00:52:10.905Z,0.63
2022-10-15T00:54:41.201Z,0.50
2022-10-15T00:57:08.556Z,0.60
2022-10-15T00:59:38.471Z,0.43
2022-10-15T01:02:05.487Z,0.88
2022-10-15T01:04:32.358Z,0.40
2022-10-15T01:06:58.995Z,0.57
2022-10-15T01:09:26.251Z,0.63
2022-10-15T01:11:55.015Z,0.47
2022-10-15T01:14:39.947Z,0.35
2022-10-15T01:17:13.596Z,0.40
2022-10-15T01:19:54.394Z,0.38
2022-10-15T01:22:45.918Z,0.57
2022-10-15T01:25:39.723Z,0.40
2022-10-15T01:28:44.027Z,0.68
2022-10-15T01:31:22.656Z,0.28
2022-10-15T01:37:08.469Z,0.40
2022-10-15T01:39:42.039Z,0.35
2022-10-15T01:42:33.448Z,0.52
2022-10-15T01:45:08.913Z,0.50
2022-10-15T01:47:58.964Z,0.40
2022-10-15T01:50:27.890Z,0.50
2022-10-15T01:52:55.840Z,0.40
2022-10-15T01:55:25.005Z,0.52
2022-10-15T01:57:52.372Z,0.70
2022-10-15T02:00:19.148Z,0.55
2022-10-15T02:02:45.896Z,0.43
2022-10-15T02:05:19.029Z,0.47
2022-10-15T02:08:01.785Z,0.20
2022-10-15T02:11:09.551Z,0.30
2022-10-15T02:13:50.095Z,0.28
2022-10-15T02:19:05.587Z,0.73
2022-10-15T02:21:43.129Z,0.50
2022-10-15T02:24:25.516Z,0.65
2022-10-15T02:26:54.112Z,0.40
2022-10-15T02:29:23.413Z,0.50
2022-10-15T02:31:51.634Z,0.47
2022-10-15T02:34:20.535Z,0.40
2022-10-15T02:36:47.700Z,0.30
2022-10-15T02:39:21.003Z,0.28
2022-10-15T02:41:48.923Z,0.60
2022-10-15T02:44:15.457Z,0.80
2022-10-15T02:46:42.029Z,0.50
2022-10-15T02:49:09.490Z,0.47
2022-10-15T02:51:36.908Z,0.50
2022-10-15T02:54:04.937Z,0.70
2022-10-15T02:56:31.860Z,0.60
2022-10-15T02:58:59.129Z,0.65
2022-10-15T03:01:25.875Z,0.50
2022-10-15T03:03:52.983Z,0.40
2022-10-15T03:06:19.833Z,0.40
2022-10-15T03:08:47.577Z,0.50
2022-10-15T03:11:14.483Z,0.30
2022-10-15T03:13:41.759Z,0.70
2022-10-15T03:16:09.302Z,0.40
2022-10-15T03:18:40.465Z,0.40
2022-10-15T03:21:09.733Z,0.47
2022-10-15T03:23:36.494Z,0.68
2022-10-15T03:26:11.529Z,0.40
2022-10-15T03:28:38.334Z,0.60
2022-10-15T03:31:06.150Z,0.17
2022-10-15T03:33:32.852Z,0.60
2022-10-15T03:36:00.372Z,0.40
2022-10-15T03:38:26.941Z,0.30
2022-10-15T03:40:54.177Z,0.40
2022-10-15T03:43:37.491Z,0.40
2022-10-15T03:46:07.746Z,0.60
2022-10-15T03:48:38.600Z,0.40
2022-10-15T03:51:05.244Z,0.43
2022-10-15T03:53:31.921Z,0.30
2022-10-15T03:56:06.099Z,0.30
2022-10-15T03:58:35.654Z,0.30
2022-10-15T04:01:12.611Z,0.45
2022-10-15T04:03:39.610Z,0.20
2022-10-15T04:06:06.841Z,0.30
2022-10-15T04:08:34.496Z,0.30
2022-10-15T04:11:11.942Z,0.40
2022-10-15T04:18:32.817Z,0.50
2022-10-15T04:21:00.299Z,0.50
2022-10-15T04:23:27.230Z,0.20
2022-10-15T04:26:19.405Z,0.50
2022-10-15T04:28:48.634Z,0.68
2022-10-15T04:31:15.800Z,0.10
2022-10-15T04:33:42.659Z,0.40
2022-10-15T04:36:12.920Z,0.50
2022-10-15T04:38:52.928Z,0.30
2022-10-15T04:41:32.347Z,0.35
2022-10-15T04:44:03.583Z,0.60
2022-10-15T04:46:31.652Z,0.22
2022-10-15T04:49:02.758Z,0.30
2022-10-15T04:51:29.401Z,0.32
2022-10-15T04:54:12.455Z,0.40
2022-10-15T04:56:54.069Z,0.40
2022-10-15T04:59:21.107Z,0.28
2022-10-15T05:02:16.979Z,0.30
2022-10-15T05:04:47.974Z,0.17
2022-10-15T05:07:14.586Z,0.30
2022-10-15T05:09:45.947Z,0.30
2022-10-15T05:12:12.972Z,0.30
2022-10-15T05:14:39.659Z,0.10
2022-10-15T05:17:13.703Z,0.57
2022-10-15T05:19:42.567Z,0.40
2022-10-15T05:22:16.345Z,0.22
2022-10-15T05:24:49.341Z,0.40
2022-10-15T05:27:26.807Z,0.20
2022-10-15T05:29:53.419Z,0.40
2022-10-15T05:34:50.972Z,0.32
2022-10-15T05:37:18.124Z,0.40
2022-10-15T05:39:44.729Z,0.40
2022-10-15T05:42:11.965Z,0.40
2022-10-15T05:44:42.221Z,0.57
2022-10-15T05:47:11.825Z,0.22
2022-10-15T05:49:39.092Z,0.40
2022-10-15T05:52:12.238Z,0.15
2022-10-15T05:55:01.742Z,0.25
2022-10-15T05:57:28.472Z,0.40
2022-10-15T05:59:55.457Z,0.55
2022-10-15T06:02:22.502Z,0.40
2022-10-15T06:07:38.105Z,0.43
2022-10-15T06:10:08.475Z,0.50
2022-10-15T06:12:35.142Z,0.60
2022-10-15T06:15:01.904Z,0.50
2022-10-15T06:17:28.782Z,0.40
2022-10-15T06:19:55.353Z,0.38
2022-10-15T06:22:21.899Z,0.40
2022-10-15T06:24:48.464Z,0.60
2022-10-15T06:27:15.020Z,0.40
2022-10-15T06:29:41.730Z,0.52
2022-10-15T06:32:13.619Z,0.70
2022-10-15T06:34:44.212Z,0.40
2022-10-15T06:37:10.776Z,0.50
2022-10-15T06:39:37.324Z,0.60
2022-10-15T06:42:03.952Z,0.50
2022-10-15T06:44:42.460Z,0.70
2022-10-15T06:47:09.900Z,0.50
2022-10-15T06:49:36.436Z,0.60
2022-10-15T06:52:03.926Z,0.50
2022-10-15T06:54:35.117Z,0.50
2022-10-15T06:57:01.793Z,0.70
2022-10-15T06:59:30.257Z,0.75
2022-10-15T07:01:58.161Z,1.00
2022-10-15T07:04:27.832Z,0.93
2022-10-15T07:06:57.006Z,0.70
2022-10-15T07:09:24.033Z,0.80
2022-10-15T07:11:50.525Z,0.73
2022-10-15T07:14:20.384Z,0.68
2022-10-15T07:16:46.894Z,0.95
2022-10-15T07:19:13.416Z,0.70
2022-10-15T07:21:39.990Z,1.05
2022-10-15T07:24:06.637Z,0.50
2022-10-15T07:26:33.782Z,0.70
2022-10-15T07:29:03.427Z,0.60
2022-10-15T07:31:31.029Z,0.65
2022-10-15T07:36:25.771Z,0.68
2022-10-15T07:38:52.980Z,0.73
2022-10-15T07:41:19.688Z,0.70
2022-10-15T07:43:46.218Z,0.57
2022-10-15T07:46:12.774Z,0.70
2022-10-15T07:48:40.304Z,0.70
2022-10-15T07:51:08.044Z,0.77
2022-10-15T07:56:07.765Z,0.80
2022-10-15T07:58:35.651Z,0.80
2022-10-15T08:01:03.290Z,0.90
2022-10-15T08:03:30.683Z,0.80
2022-10-15T08:06:00.504Z,0.70
2022-10-15T08:08:28.256Z,0.80
2022-10-15T08:10:54.932Z,0.77
2022-10-15T08:13:21.884Z,0.70
2022-10-15T08:15:50.737Z,0.80
2022-10-15T08:18:17.303Z,0.98
2022-10-15T08:20:43.943Z,1.02
2022-10-15T08:23:15.481Z,1.00
2022-10-15T08:25:42.494Z,0.68
2022-10-15T08:28:12.088Z,0.70
2022-10-15T08:30:38.641Z,0.95
2022-10-15T08:33:10.334Z,1.10
2022-10-15T08:35:39.092Z,1.35
2022-10-15T08:38:05.737Z,0.77
2022-10-15T08:40:35.276Z,1.13
2022-10-15T08:43:02.402Z,0.80
2022-10-15T08:45:32.280Z,0.85
2022-10-15T08:48:03.913Z,0.95
2022-10-15T08:50:53.280Z,0.90
2022-10-15T08:53:22.441Z,1.00
2022-10-15T08:55:51.745Z,1.10
2022-10-15T08:58:30.279Z,0.95
2022-10-15T09:01:02.400Z,0.85
2022-10-15T09:04:00.226Z,0.70
2022-10-15T09:06:37.859Z,1.25
2022-10-15T09:09:17.206Z,0.80
2022-10-15T09:12:26.154Z,0.88
2022-10-15T09:14:56.878Z,0.90
2022-10-15T09:17:25.977Z,0.95
2022-10-15T09:19:54.712Z,1.00
2022-10-15T09:22:26.916Z,1.00
2022-10-15T09:24:58.622Z,0.85
2022-10-15T09:27:40.157Z,0.80
2022-10-15T09:30:28.084Z,0.90
2022-10-15T09:33:13.259Z,1.00
2022-10-15T09:35:43.860Z,0.80
2022-10-15T09:38:14.118Z,1.08
2022-10-15T09:41:15.960Z,0.80
2022-10-15T09:43:46.340Z,0.90
2022-10-15T09:46:12.961Z,1.73
2022-10-15T09:48:54.729Z,0.68
2022-10-15T09:51:38.375Z,0.80
2022-10-15T09:54:26.209Z,0.50
2022-10-15T09:56:55.126Z,0.77
2022-10-15T09:59:23.054Z,0.90
2022-10-15T10:01:59.949Z,0.60
2022-10-15T10:04:31.109Z,0.82
2022-10-15T10:07:02.188Z,1.00
2022-10-15T10:09:37.441Z,0.80
2022-10-15T10:12:05.861Z,1.00
2022-10-15T10:14:33.995Z,0.90
2022-10-15T10:17:21.111Z,1.02
2022-10-15T10:20:08.891Z,1.00
2022-10-15T10:22:56.994Z,0.95
2022-10-15T10:25:26.609Z,1.30
2022-10-15T10:27:54.502Z,1.38
2022-10-15T10:30:21.165Z,1.23
2022-10-15T10:32:49.184Z,1.05
2022-10-15T10:35:24.135Z,0.70
2022-10-15T10:37:50.886Z,0.60
2022-10-15T10:40:33.689Z,0.60
2022-10-15T10:43:22.035Z,0.80
2022-10-15T10:46:17.712Z,0.50
2022-10-15T10:48:52.044Z,0.55
2022-10-15T10:51:24.173Z,0.30
2022-10-15T10:54:05.299Z,0.47
2022-10-15T10:56:43.116Z,0.50
2022-10-15T10:59:16.975Z,0.50
2022-10-15T11:01:44.106Z,0.50
2022-10-15T11:04:16.950Z,0.32
2022-10-15T11:07:04.980Z,0.60
2022-10-15T11:09:56.260Z,0.40
2022-10-15T11:12:39.247Z,0.73
2022-10-15T11:15:47.463Z,0.55
2022-10-15T11:18:21.770Z,0.32
2022-10-15T11:21:19.198Z,0.30
2022-10-15T11:24:21.503Z,0.40
2022-10-15T11:27:10.945Z,0.50
2022-10-15T11:30:00.736Z,0.50
2022-10-15T11:33:06.884Z,0.60
2022-10-15T11:35:54.563Z,0.85
2022-10-15T11:38:43.162Z,0.93
2022-10-15T11:41:47.289Z,0.57
2022-10-15T11:44:32.186Z,0.68
2022-10-15T11:47:10.328Z,0.70
2022-10-15T11:49:59.295Z,0.73
2022-10-15T11:52:32.011Z,0.60
2022-10-15T11:55:18.380Z,0.65
2022-10-15T11:57:46.176Z,0.68
2022-10-15T12:00:34.808Z,0.50
2022-10-15T12:03:11.201Z,0.55
2022-10-15T12:05:40.287Z,0.80
2022-10-15T12:08:08.724Z,0.65
2022-10-15T12:10:57.319Z,0.73
2022-10-15T12:13:34.951Z,0.70
2022-10-15T12:16:12.767Z,1.20
2022-10-15T12:19:18.608Z,0.82
2022-10-15T12:21:54.299Z,0.55
2022-10-15T12:24:40.489Z,0.70
2022-10-15T12:27:19.291Z,0.70
2022-10-15T12:30:07.500Z,1.23
2022-10-15T12:32:48.866Z,0.43
2022-10-15T12:35:15.443Z,0.70
2022-10-15T12:37:44.363Z,0.70
2022-10-15T12:40:22.883Z,0.80
2022-10-15T12:43:03.853Z,0.70
2022-10-15T12:45:50.395Z,0.70
2022-10-15T12:48:16.887Z,0.50
2022-10-15T12:50:45.903Z,0.60
2022-10-15T12:53:32.589Z,0.50
2022-10-15T12:56:16.140Z,0.45
2022-10-15T12:58:44.295Z,0.60
2022-10-15T13:01:14.186Z,0.60
2022-10-15T13:03:52.144Z,0.75
2022-10-15T13:06:24.488Z,0.85
2022-10-15T13:09:00.181Z,1.20
2022-10-15T13:14:37.298Z,0.75
2022-10-15T13:17:16.277Z,0.50
2022-10-15T13:19:57.997Z,0.70
2022-10-15T13:22:35.190Z,1.08
2022-10-15T13:25:02.604Z,0.75
2022-10-15T13:27:37.686Z,0.70
2022-10-15T13:30:16.088Z,0.80
2022-10-15T13:32:47.393Z,0.80
2022-10-15T13:35:22.319Z,0.80
2022-10-15T13:37:49.442Z,0.70
2022-10-15T13:40:21.762Z,0.80
2022-10-15T13:43:03.560Z,0.65
2022-10-15T13:45:30.664Z,0.73
2022-10-15T13:47:57.372Z,0.75
2022-10-15T13:50:24.952Z,0.80
2022-10-15T13:53:01.975Z,0.80
2022-10-15T13:55:30.843Z,0.70
2022-10-15T13:58:02.662Z,0.75
2022-10-15T14:00:35.248Z,0.88
2022-10-15T14:03:22.431Z,1.27
2022-10-15T14:05:51.144Z,1.30
2022-10-15T14:08:21.224Z,1.30
2022-10-15T14:10:48.850Z,1.00
2022-10-15T14:13:16.900Z,0.95
2022-10-15T14:15:50.455Z,1.00
2022-10-15T14:18:18.665Z,1.15
2022-10-15T14:20:46.546Z,1.05
2022-10-15T14:23:24.610Z,0.90
2022-10-15T14:25:56.582Z,1.10
2022-10-15T14:28:24.867Z,1.00
2022-10-15T14:30:52.297Z,1.10
2022-10-15T14:33:45.672Z,0.93
2022-10-15T14:38:42.023Z,1.00
2022-10-15T14:41:28.063Z,1.00
2022-10-15T14:44:05.737Z,1.13
2022-10-15T14:46:41.713Z,1.33
2022-10-15T14:49:22.395Z,1.20
2022-10-15T14:52:02.360Z,1.20
2022-10-15T14:54:35.949Z,0.93
2022-10-15T14:57:03.250Z,1.00
2022-10-15T14:59:33.262Z,0.90
2022-10-15T15:02:03.079Z,1.02
2022-10-15T15:04:35.859Z,0.90
2022-10-15T15:07:02.484Z,1.10
2022-10-15T15:09:29.431Z,1.00
2022-10-15T15:11:56.034Z,1.00
2022-10-15T15:14:25.298Z,1.15
2022-10-15T15:16:52.164Z,1.00
2022-10-15T15:19:18.714Z,0.95
2022-10-15T15:21:45.372Z,1.60
2022-10-15T15:24:12.072Z,1.00
2022-10-15T15:26:39.017Z,0.93
2022-10-15T15:29:14.258Z,1.20
2022-10-15T15:31:41.034Z,1.05
2022-10-15T15:34:07.554Z,1.00
2022-10-15T15:36:34.292Z,1.33
2022-10-15T15:39:00.895Z,1.00
2022-10-15T15:41:30.893Z,0.88
2022-10-15T15:43:58.796Z,1.13
2022-10-15T15:46:39.025Z,0.85
2022-10-15T15:49:05.509Z,1.13
2022-10-15T15:51:32.617Z,1.00
2022-10-15T15:53:59.152Z,0.90
2022-10-15T15:56:26.821Z,0.95
2022-10-15T15:58:53.443Z,0.98
2022-10-15T16:01:22.166Z,0.88
2022-10-15T16:03:48.864Z,0.80
2022-10-15T16:06:15.766Z,0.80
2022-10-15T16:08:42.438Z,1.00
2022-10-15T16:11:09.092Z,0.80
2022-10-15T16:13:35.681Z,1.13
2022-10-15T16:16:02.486Z,1.00
2022-10-15T16:18:29.021Z,1.00
2022-10-15T16:20:55.711Z,1.00
2022-10-15T16:23:22.267Z,0.90
2022-10-15T16:25:48.873Z,0.98
2022-10-15T16:28:15.391Z,0.98
2022-10-15T16:30:41.911Z,1.00
2022-10-15T16:35:40.072Z,0.77
2022-10-15T16:38:06.884Z,1.98
2022-10-15T16:40:34.587Z,0.80
2022-10-15T16:45:27.591Z,1.30
2022-10-15T16:47:54.113Z,1.45
2022-10-15T16:50:20.764Z,1.17
2022-10-15T16:52:47.322Z,1.10
2022-10-15T16:55:13.986Z,0.88
2022-10-15T16:57:41.352Z,0.90
2022-10-15T17:00:08.675Z,0.90
2022-10-15T17:02:36.806Z,0.80
2022-10-15T17:05:03.422Z,0.98
2022-10-15T17:07:29.966Z,0.80
2022-10-15T17:09:56.916Z,0.95
2022-10-15T17:12:23.925Z,0.98
2022-10-15T17:14:51.542Z,1.05
2022-10-15T17:17:18.212Z,1.02
2022-10-15T17:19:44.704Z,1.10
2022-10-15T17:22:11.285Z,1.15
2022-10-15T17:24:37.797Z,1.30
2022-10-15T17:27:04.625Z,1.02
2022-10-15T17:29:33.498Z,1.08
2022-10-15T17:32:00.973Z,0.82
2022-10-15T17:36:56.420Z,1.00
2022-10-15T17:39:23.523Z,1.00
2022-10-15T17:41:51.593Z,1.25
2022-10-15T17:44:18.230Z,1.02
2022-10-15T17:46:44.931Z,1.10
2022-10-15T17:49:11.872Z,0.82
2022-10-15T17:51:39.210Z,0.85
2022-10-15T17:54:06.048Z,0.80
2022-10-15T17:56:34.817Z,0.90
2022-10-15T17:59:04.780Z,0.98
2022-10-15T18:01:56.729Z,0.88
2022-10-15T18:04:20.864Z,0.85
2022-10-15T18:06:47.622Z,1.10
2022-10-15T18:09:23.814Z,1.00
2022-10-15T18:11:50.944Z,1.00
2022-10-15T18:14:17.540Z,1.40
2022-10-15T18:16:44.285Z,1.00
2022-10-15T18:19:11.418Z,1.30
2022-10-15T18:21:38.075Z,1.00
2022-10-15T18:24:04.726Z,1.23
2022-10-15T18:26:32.105Z,1.17
2022-10-15T18:28:58.697Z,1.13
2022-10-15T18:31:28.517Z,1.02
2022-10-15T18:33:55.930Z,0.90
2022-10-15T18:36:25.801Z,0.93
2022-10-15T18:38:53.871Z,1.10
2022-10-15T18:41:24.272Z,1.15
2022-10-15T18:43:51.773Z,1.20
2022-10-15T18:46:18.936Z,1.10
2022-10-15T18:48:45.557Z,1.20
2022-10-15T18:51:12.315Z,1.20
2022-10-15T18:53:39.573Z,1.00
2022-10-15T18:56:06.632Z,1.30
2022-10-15T18:58:33.729Z,1.50
2022-10-15T19:01:30.670Z,1.17
2022-10-15T19:04:00.251Z,1.25
2022-10-15T19:06:34.196Z,1.00
2022-10-15T19:09:02.234Z,1.30
2022-10-15T19:11:32.637Z,1.17
2022-10-15T19:14:00.615Z,1.23
2022-10-15T19:16:27.990Z,1.00
2022-10-15T19:19:00.899Z,1.73
2022-10-15T19:21:27.836Z,1.30
2022-10-15T19:23:54.409Z,1.65
2022-10-15T19:26:23.659Z,1.40
2022-10-15T19:28:51.752Z,1.20
2022-10-15T19:31:29.954Z,1.13
2022-10-15T19:33:59.941Z,1.30
2022-10-15T19:36:32.941Z,1.02
2022-10-15T19:39:05.595Z,1.10
2022-10-15T19:41:32.480Z,1.17
2022-10-15T19:43:58.976Z,0.82
2022-10-15T19:46:26.707Z,1.13
2022-10-15T19:51:21.458Z,1.20
2022-10-15T19:53:56.470Z,0.85
2022-10-15T19:56:23.221Z,1.08
2022-10-15T19:58:55.536Z,0.98
2022-10-15T20:01:22.279Z,0.93
2022-10-15T20:03:48.839Z,1.30
2022-10-15T20:06:15.570Z,0.98
2022-10-15T20:08:42.750Z,1.13
2022-10-15T20:11:09.373Z,1.10
2022-10-15T20:13:38.116Z,0.80
2022-10-15T20:16:08.557Z,0.90
2022-10-15T20:18:36.096Z,1.00
2022-10-15T20:21:14.189Z,1.27
2022-10-15T20:23:42.150Z,1.30
2022-10-15T20:26:12.147Z,1.48
2022-10-15T20:28:39.994Z,1.65
2022-10-15T20:31:09.869Z,1.20
2022-10-15T20:33:37.061Z,1.10
2022-10-15T20:36:08.477Z,1.30
2022-10-15T20:38:35.766Z,1.20
2022-10-15T20:41:13.855Z,1.88
2022-10-15T20:43:40.908Z,1.15
2022-10-15T20:46:11.407Z,1.15
2022-10-15T20:48:38.374Z,1.10
2022-10-15T20:51:06.741Z,1.10
2022-10-15T20:53:33.488Z,1.20
2022-10-15T20:56:01.240Z,1.00
2022-10-15T21:00:54.534Z,1.13
2022-10-15T21:03:22.013Z,1.08
2022-10-15T21:05:48.649Z,1.10
2022-10-15T21:08:15.276Z,1.08
2022-10-15T21:10:41.899Z,1.10
2022-10-15T21:13:08.511Z,1.17
2022-10-15T21:15:35.283Z,1.08
2022-10-15T21:18:01.857Z,1.13
2022-10-15T21:20:28.655Z,1.02
2022-10-15T21:22:56.195Z,1.17
2022-10-15T21:25:22.893Z,1.17
2022-10-15T21:27:49.432Z,0.90
2022-10-15T21:30:16.136Z,1.15
2022-10-15T21:32:42.779Z,1.20
2022-10-15T21:35:09.494Z,1.10
2022-10-15T21:37:37.858Z,0.85
2022-10-15T21:40:05.919Z,0.90
2022-10-15T21:42:32.403Z,1.00
2022-10-15T21:44:59.310Z,1.08
2022-10-15T21:47:26.259Z,1.20
2022-10-15T21:49:53.075Z,1.02
2022-10-15T21:52:19.635Z,1.15
2022-10-15T21:54:46.269Z,1.10
2022-10-15T21:57:12.792Z,1.00
2022-10-15T21:59:39.419Z,1.30
2022-10-15T22:02:06.082Z,1.30
2022-10-15T22:04:34.588Z,1.17
2022-10-15T22:07:01.779Z,1.00
2022-10-15T22:09:28.879Z,1.25
2022-10-15T22:11:55.514Z,1.13
2022-10-15T22:14:22.092Z,1.20
2022-10-15T22:16:48.655Z,1.13
2022-10-15T22:19:16.219Z,1.35
2022-10-15T22:21:42.917Z,1.08
2022-10-15T22:24:17.890Z,1.48
2022-10-15T22:26:47.579Z,1.23
2022-10-15T22:29:20.066Z,1.40
2022-10-15T22:31:47.024Z,1.30
2022-10-15T22:34:13.701Z,1.10
2022-10-15T22:36:40.308Z,1.38
2022-10-15T22:39:07.701Z,1.45
2022-10-15T22:41:39.581Z,1.40
2022-10-15T22:44:07.895Z,1.50
2022-10-15T22:46:36.580Z,1.40
2022-10-15T22:49:05.038Z,1.50
2022-10-15T22:51:32.125Z,1.85
2022-10-15T22:53:59.115Z,1.70
2022-10-15T22:56:26.837Z,2.00
2022-10-15T23:01:23.543Z,1.67
2022-10-15T23:03:52.662Z,1.70
2022-10-15T23:06:20.811Z,1.85
2022-10-15T23:08:47.900Z,1.83
2022-10-15T23:11:17.143Z,1.95
2022-10-15T23:13:45.059Z,1.80
2022-10-15T23:16:17.529Z,2.00
2022-10-15T23:18:45.469Z,1.48
2022-10-15T23:21:20.737Z,1.45
2022-10-15T23:23:47.286Z,1.40
2022-10-15T23:26:15.967Z,2.00
2022-10-15T23:28:43.958Z,1.52
2022-10-15T23:31:24.219Z,1.50
2022-10-15T23:33:52.105Z,1.58
2022-10-15T23:36:19.744Z,1.63
2022-10-15T23:41:16.288Z,1.58
2022-10-15T23:43:42.962Z,1.67
2022-10-15T23:46:09.607Z,1.42
2022-10-15T23:48:36.295Z,1.77
2022-10-15T23:51:10.611Z,1.55
2022-10-15T23:53:37.149Z,1.48
2022-10-15T23:56:03.753Z,1.70
2022-10-15T23:58:32.284Z,1.73
